createdAt,value
2023-02-24T00:00:56.720Z,102.68
2023-02-24T00:03:28.007Z,101.68
2023-02-24T00:05:58.872Z,102.10
2023-02-24T00:08:30.156Z,101.53
2023-02-24T00:11:00.275Z,98.95
2023-02-24T00:13:32.427Z,97.57
2023-02-24T00:16:05.170Z,108.20
2023-02-24T00:18:37.455Z,98.00
2023-02-24T00:21:12.702Z,100.50
2023-02-24T00:23:44.580Z,93.35
2023-02-24T00:26:17.976Z,96.75
2023-02-24T00:28:48.464Z,91.57
2023-02-24T00:31:21.054Z,90.22
2023-02-24T00:33:52.392Z,90.18
2023-02-24T00:36:27.795Z,85.43
2023-02-24T00:39:00.899Z,87.35
2023-02-24T00:41:34.448Z,93.03
2023-02-24T00:44:11.361Z,84.05
2023-02-24T00:46:46.289Z,75.78
2023-02-24T00:49:20.277Z,83.00
2023-02-24T00:51:55.984Z,74.82
2023-02-24T00:54:29.745Z,72.22
2023-02-24T00:57:00.377Z,83.30
2023-02-24T00:59:30.726Z,79.68
2023-02-24T01:02:01.097Z,66.75
2023-02-24T01:04:32.645Z,65.55
2023-02-24T01:07:03.425Z,74.47
2023-02-24T01:09:36.592Z,63.17
2023-02-24T01:12:28.647Z,62.20
2023-02-24T01:14:59.817Z,56.20
2023-02-24T01:17:29.980Z,57.13
2023-02-24T01:20:17.558Z,52.65
2023-02-24T01:22:51.947Z,49.83
2023-02-24T01:25:22.151Z,53.00
2023-02-24T01:27:54.405Z,49.90
2023-02-24T01:30:25.244Z,53.05
2023-02-24T01:32:55.217Z,51.78
2023-02-24T01:35:27.446Z,50.35
2023-02-24T01:37:57.919Z,56.63
2023-02-24T01:40:30.845Z,50.47
2023-02-24T01:43:02.240Z,48.53
2023-02-24T01:45:38.276Z,51.90
2023-02-24T01:48:11.811Z,50.53
2023-02-24T01:50:43.276Z,49.05
2023-02-24T01:53:14.427Z,51.33
2023-02-24T01:55:53.751Z,49.00
2023-02-24T01:58:30.919Z,45.35
2023-02-24T02:01:01.878Z,51.78
2023-02-24T02:03:36.638Z,44.50
2023-02-24T02:06:12.746Z,43.38
2023-02-24T02:08:47.910Z,52.28
2023-02-24T02:11:22.102Z,45.10
2023-02-24T02:13:54.727Z,49.40
2023-02-24T02:17:04.538Z,48.72
2023-02-24T02:20:17.620Z,46.20
2023-02-24T02:23:27.199Z,46.10
2023-02-24T02:26:37.297Z,44.45
2023-02-24T02:29:47.166Z,43.83
2023-02-24T02:33:03.237Z,44.95
2023-02-24T02:36:02.101Z,46.83
2023-02-24T02:38:59.146Z,46.00
2023-02-24T02:41:49.526Z,47.22
2023-02-24T02:44:33.830Z,46.45
2023-02-24T02:47:16.487Z,41.55
2023-02-24T02:49:56.559Z,40.72
2023-02-24T02:52:42.623Z,47.30
2023-02-24T02:55:20.348Z,45.15
2023-02-24T02:57:54.524Z,46.53
2023-02-24T03:00:30.925Z,42.72
2023-02-24T03:03:10.845Z,39.85
2023-02-24T03:05:48.915Z,46.83
2023-02-24T03:08:27.323Z,50.78
2023-02-24T03:11:02.067Z,48.30
2023-02-24T03:13:38.336Z,41.97
2023-02-24T03:16:12.806Z,39.30
2023-02-24T03:18:55.372Z,44.00
2023-02-24T03:21:42.592Z,46.30
2023-02-24T03:24:13.294Z,45.42
2023-02-24T03:27:02.586Z,45.58
2023-02-24T03:29:54.935Z,49.38
2023-02-24T03:32:35.914Z,62.55
2023-02-24T03:35:19.612Z,59.40
2023-02-24T03:37:51.506Z,58.47
2023-02-24T03:40:22.643Z,60.42
2023-02-24T03:42:59.606Z,49.22
2023-02-24T03:45:31.297Z,47.97
2023-02-24T03:48:04.617Z,46.65
2023-02-24T03:50:35.881Z,50.60
2023-02-24T03:53:35.259Z,50.97
2023-02-24T03:56:47.421Z,51.88
2023-02-24T03:59:59.246Z,50.22
2023-02-24T04:02:36.130Z,47.63
2023-02-24T04:05:16.961Z,49.05
2023-02-24T04:08:10.522Z,47.47
2023-02-24T04:10:55.191Z,46.67
2023-02-24T04:13:40.833Z,53.20
2023-02-24T04:16:30.512Z,48.92
2023-02-24T04:19:06.599Z,47.67
2023-02-24T04:21:40.732Z,52.03
2023-02-24T04:24:17.828Z,50.13
2023-02-24T04:26:51.447Z,50.58
2023-02-24T04:29:25.590Z,49.38
2023-02-24T04:32:08.038Z,51.70
2023-02-24T04:34:41.835Z,47.10
2023-02-24T04:37:12.445Z,54.40
2023-02-24T04:39:43.326Z,47.75
2023-02-24T04:42:23.913Z,50.75
2023-02-24T04:44:55.327Z,47.65
2023-02-24T04:47:25.728Z,48.78
2023-02-24T04:49:56.607Z,46.95
2023-02-24T04:52:26.776Z,49.15
2023-02-24T04:54:57.228Z,47.15
2023-02-24T04:57:27.561Z,41.97
2023-02-24T04:59:59.072Z,38.33
2023-02-24T05:02:29.412Z,38.08
2023-02-24T05:05:00.970Z,40.25
2023-02-24T05:07:31.619Z,39.10
2023-02-24T05:10:02.091Z,41.50
2023-02-24T05:12:34.396Z,38.92
2023-02-24T05:15:05.608Z,37.55
2023-02-24T05:17:36.984Z,37.03
2023-02-24T05:20:28.604Z,38.53
2023-02-24T05:22:59.134Z,38.20
2023-02-24T05:25:29.557Z,38.63
2023-02-24T05:28:00.263Z,38.50
2023-02-24T05:30:30.714Z,40.58
2023-02-24T05:33:01.439Z,40.15
2023-02-24T05:35:33.899Z,40.05
2023-02-24T05:38:05.308Z,38.85
2023-02-24T05:40:36.193Z,38.72
2023-02-24T05:43:06.965Z,40.45
2023-02-24T05:45:37.372Z,37.85
2023-02-24T05:48:07.862Z,35.80
2023-02-24T05:50:40.530Z,47.50
2023-02-24T05:53:11.100Z,43.00
2023-02-24T05:55:42.465Z,42.05
2023-02-24T05:58:12.587Z,37.35
2023-02-24T06:00:47.479Z,39.80
2023-02-24T06:03:18.998Z,38.78
2023-02-24T06:06:07.013Z,37.88
2023-02-24T06:08:50.882Z,41.35
2023-02-24T06:11:22.615Z,41.30
2023-02-24T06:13:59.183Z,41.42
2023-02-24T06:16:30.074Z,41.45
2023-02-24T06:19:01.480Z,41.50
2023-02-24T06:21:31.646Z,39.13
2023-02-24T06:24:02.533Z,46.13
2023-02-24T06:26:35.228Z,40.72
2023-02-24T06:29:07.905Z,36.83
2023-02-24T06:31:38.586Z,41.40
2023-02-24T06:34:11.827Z,40.13
2023-02-24T06:36:44.589Z,36.35
2023-02-24T06:39:16.149Z,40.28
2023-02-24T06:41:46.631Z,41.28
2023-02-24T06:44:16.732Z,36.25
2023-02-24T06:46:47.777Z,35.92
2023-02-24T06:49:18.295Z,36.45
2023-02-24T06:51:50.183Z,37.28
2023-02-24T06:54:20.758Z,36.35
2023-02-24T06:56:52.747Z,36.95
2023-02-24T06:59:30.182Z,39.20
2023-02-24T07:02:04.904Z,39.00
2023-02-24T07:04:45.126Z,43.08
2023-02-24T07:07:16.031Z,35.78
2023-02-24T07:09:47.539Z,42.33
2023-02-24T07:12:22.455Z,42.20
2023-02-24T07:14:52.779Z,35.42
2023-02-24T07:17:24.900Z,37.35
2023-02-24T07:19:56.145Z,39.03
2023-02-24T07:22:26.747Z,35.15
2023-02-24T07:25:02.048Z,37.10
2023-02-24T07:27:32.696Z,34.95
2023-02-24T07:30:07.787Z,32.78
2023-02-24T07:32:39.854Z,34.90
2023-02-24T07:35:10.866Z,39.47
2023-02-24T07:37:43.289Z,33.28
2023-02-24T07:40:18.889Z,35.15
2023-02-24T07:42:49.345Z,36.67
2023-02-24T07:45:20.001Z,35.17
2023-02-24T07:47:51.028Z,40.10
2023-02-24T07:50:21.480Z,39.58
2023-02-24T07:52:53.317Z,41.40
2023-02-24T07:55:27.256Z,36.00
2023-02-24T07:57:58.692Z,37.40
2023-02-24T08:00:29.797Z,39.78
2023-02-24T08:03:02.205Z,36.25
2023-02-24T08:05:32.222Z,35.33
2023-02-24T08:08:01.984Z,37.78
2023-02-24T08:10:38.404Z,38.30
2023-02-24T08:13:09.229Z,35.65
2023-02-24T08:15:39.500Z,34.35
2023-02-24T08:18:10.022Z,34.28
2023-02-24T08:21:00.185Z,33.47
2023-02-24T08:23:31.788Z,39.47
2023-02-24T08:26:05.425Z,37.58
2023-02-24T08:28:36.317Z,39.85
2023-02-24T08:31:07.369Z,38.13
2023-02-24T08:33:38.967Z,36.28
2023-02-24T08:36:09.428Z,33.53
2023-02-24T08:38:43.555Z,31.60
2023-02-24T08:41:20.036Z,39.78
2023-02-24T08:43:51.828Z,35.20
2023-02-24T08:46:27.727Z,39.28
2023-02-24T08:49:02.324Z,35.13
2023-02-24T08:51:36.901Z,35.22
2023-02-24T08:54:16.926Z,38.13
2023-02-24T08:56:51.104Z,32.65
2023-02-24T08:59:39.192Z,34.08
2023-02-24T09:02:26.073Z,33.80
2023-02-24T09:05:05.350Z,35.00
2023-02-24T09:07:42.304Z,36.70
2023-02-24T09:10:20.248Z,34.53
2023-02-24T09:12:51.153Z,29.88
2023-02-24T09:15:24.301Z,36.85
2023-02-24T09:18:08.781Z,31.05
2023-02-24T09:20:58.936Z,30.48
2023-02-24T09:23:32.675Z,30.90
2023-02-24T09:26:12.672Z,30.98
2023-02-24T09:28:57.242Z,34.78
2023-02-24T09:31:42.269Z,31.90
2023-02-24T09:34:17.263Z,34.65
2023-02-24T09:37:03.275Z,35.13
2023-02-24T09:39:56.930Z,28.92
2023-02-24T09:42:36.174Z,36.78
2023-02-24T09:45:13.349Z,32.05
2023-02-24T09:48:08.538Z,32.25
2023-02-24T09:51:02.090Z,32.00
2023-02-24T09:53:50.795Z,38.20
2023-02-24T09:56:44.101Z,44.15
2023-02-24T09:59:52.511Z,40.10
2023-02-24T10:02:48.418Z,37.40
2023-02-24T10:05:49.394Z,28.10
2023-02-24T10:08:37.568Z,33.95
2023-02-24T10:11:11.348Z,31.25
2023-02-24T10:14:03.457Z,28.48
2023-02-24T10:16:45.970Z,33.33
2023-02-24T10:19:36.063Z,33.33
2023-02-24T10:22:30.066Z,29.92
2023-02-24T10:25:39.861Z,35.38
2023-02-24T10:28:41.758Z,33.55
2023-02-24T10:31:27.707Z,42.38
2023-02-24T10:34:27.879Z,37.20
2023-02-24T10:36:59.096Z,36.10
2023-02-24T10:39:31.877Z,37.47
2023-02-24T10:42:26.245Z,37.55
2023-02-24T10:45:20.066Z,46.65
2023-02-24T10:47:59.552Z,44.55
2023-02-24T10:50:55.345Z,36.05
2023-02-24T10:53:36.493Z,47.58
2023-02-24T10:56:37.227Z,39.75
2023-02-24T10:59:33.813Z,41.17
2023-02-24T11:02:34.176Z,47.67
2023-02-24T11:05:31.292Z,41.55
2023-02-24T11:08:37.392Z,44.92
2023-02-24T11:11:32.223Z,52.05
2023-02-24T11:14:24.280Z,62.03
2023-02-24T11:17:17.801Z,50.72
2023-02-24T11:19:57.767Z,54.80
2023-02-24T11:22:36.004Z,51.90
2023-02-24T11:25:14.915Z,51.08
2023-02-24T11:27:48.426Z,46.42
2023-02-24T11:30:43.715Z,53.30
2023-02-24T11:33:44.034Z,45.08
2023-02-24T11:36:35.374Z,49.10
2023-02-24T11:39:37.526Z,57.92
2023-02-24T11:42:14.681Z,50.25
2023-02-24T11:45:24.346Z,50.85
2023-02-24T11:48:17.582Z,47.13
2023-02-24T11:51:13.148Z,49.13
2023-02-24T11:53:54.040Z,48.10
2023-02-24T11:56:47.183Z,53.60
2023-02-24T11:59:40.058Z,59.40
2023-02-24T12:02:40.192Z,48.35
2023-02-24T12:05:19.138Z,42.28
2023-02-24T12:08:18.069Z,43.53
2023-02-24T12:10:55.925Z,39.22
2023-02-24T12:13:44.448Z,46.72
2023-02-24T12:16:38.041Z,39.40
2023-02-24T12:19:36.028Z,47.10
2023-02-24T12:22:17.399Z,42.95
2023-02-24T12:24:54.484Z,46.13
2023-02-24T12:27:43.896Z,37.25
2023-02-24T12:30:39.774Z,36.25
2023-02-24T12:33:50.808Z,38.33
2023-02-24T12:37:00.768Z,39.80
2023-02-24T12:39:35.951Z,35.30
2023-02-24T12:42:31.359Z,40.08
2023-02-24T12:45:27.979Z,34.67
2023-02-24T12:48:37.450Z,40.33
2023-02-24T12:51:25.379Z,35.15
2023-02-24T12:54:16.714Z,36.30
2023-02-24T12:57:26.739Z,33.72
2023-02-24T12:59:58.251Z,34.03
2023-02-24T13:03:08.304Z,36.17
2023-02-24T13:06:04.262Z,35.92
2023-02-24T13:09:05.400Z,34.75
2023-02-24T13:12:08.619Z,33.03
2023-02-24T13:14:44.036Z,35.70
2023-02-24T13:17:25.481Z,45.03
2023-02-24T13:19:57.802Z,38.83
2023-02-24T13:22:34.939Z,32.38
2023-02-24T13:25:23.231Z,34.70
2023-02-24T13:28:37.657Z,34.88
2023-02-24T13:31:15.603Z,36.50
2023-02-24T13:33:47.488Z,36.08
2023-02-24T13:36:24.369Z,40.78
2023-02-24T13:39:08.263Z,38.15
2023-02-24T13:41:42.531Z,35.22
2023-02-24T13:44:33.579Z,33.60
2023-02-24T13:47:42.164Z,36.30
2023-02-24T13:50:30.495Z,35.80
2023-02-24T13:53:43.292Z,42.67
2023-02-24T13:56:43.661Z,37.92
2023-02-24T13:59:53.235Z,46.80
2023-02-24T14:02:30.499Z,52.97
2023-02-24T14:05:04.960Z,50.58
2023-02-24T14:07:43.859Z,50.40
2023-02-24T14:10:24.899Z,49.90
2023-02-24T14:13:17.462Z,43.38
2023-02-24T14:15:49.857Z,44.08
2023-02-24T14:18:30.396Z,39.65
2023-02-24T14:21:03.581Z,40.45
2023-02-24T14:23:37.054Z,40.17
2023-02-24T14:26:17.460Z,46.47
2023-02-24T14:28:57.697Z,40.75
2023-02-24T14:31:28.610Z,44.92
2023-02-24T14:34:03.965Z,36.95
2023-02-24T14:36:44.039Z,37.40
2023-02-24T14:39:26.852Z,39.55
2023-02-24T14:42:17.465Z,44.42
2023-02-24T14:44:59.429Z,40.53
2023-02-24T14:47:30.832Z,38.90
2023-02-24T14:50:12.744Z,40.30
2023-02-24T14:53:07.959Z,39.67
2023-02-24T14:55:41.449Z,46.90
2023-02-24T14:58:30.929Z,41.60
2023-02-24T15:01:19.204Z,48.47
2023-02-24T15:03:57.347Z,47.45
2023-02-24T15:06:33.290Z,36.38
2023-02-24T15:09:10.479Z,38.38
2023-02-24T15:11:43.678Z,39.33
2023-02-24T15:14:28.942Z,36.47
2023-02-24T15:17:22.130Z,41.45
2023-02-24T15:19:59.763Z,39.35
2023-02-24T15:22:36.169Z,36.97
2023-02-24T15:25:41.834Z,38.17
2023-02-24T15:28:34.785Z,41.70
2023-02-24T15:31:23.582Z,38.53
2023-02-24T15:34:15.544Z,35.78
2023-02-24T15:36:48.313Z,43.80
2023-02-24T15:39:32.758Z,41.80
2023-02-24T15:42:23.120Z,38.33
2023-02-24T15:45:01.191Z,37.55
2023-02-24T15:47:49.140Z,39.25
2023-02-24T15:50:24.981Z,35.40
2023-02-24T15:53:07.455Z,40.97
2023-02-24T15:55:37.697Z,39.83
2023-02-24T15:58:08.580Z,35.97
2023-02-24T16:00:39.178Z,36.15
2023-02-24T16:03:13.652Z,36.17
2023-02-24T16:05:47.627Z,34.83
2023-02-24T16:08:22.286Z,40.95
2023-02-24T16:10:54.994Z,34.38
2023-02-24T16:13:29.120Z,34.22
2023-02-24T16:16:01.430Z,35.47
2023-02-24T16:18:33.577Z,35.00
2023-02-24T16:21:05.530Z,29.88
2023-02-24T16:23:44.869Z,31.67
2023-02-24T16:26:38.226Z,34.55
2023-02-24T16:29:17.566Z,33.38
2023-02-24T16:31:52.750Z,31.73
2023-02-24T16:34:27.844Z,30.17
2023-02-24T16:37:05.893Z,30.70
2023-02-24T16:39:36.393Z,31.15
2023-02-24T16:42:08.980Z,30.40
2023-02-24T16:44:39.815Z,35.08
2023-02-24T16:47:24.051Z,33.17
2023-02-24T16:49:59.384Z,30.98
2023-02-24T16:52:32.988Z,30.67
2023-02-24T16:55:06.843Z,29.85
2023-02-24T16:57:40.205Z,22.05
2023-02-24T17:00:14.836Z,23.83
2023-02-24T17:02:51.823Z,24.63
2023-02-24T17:05:29.560Z,29.48
2023-02-24T17:08:02.434Z,27.35
2023-02-24T17:10:40.216Z,27.52
2023-02-24T17:13:13.409Z,21.42
2023-02-24T17:16:00.913Z,24.92
2023-02-24T17:18:31.336Z,23.85
2023-02-24T17:21:07.454Z,19.92
2023-02-24T17:23:57.677Z,26.38
2023-02-24T17:26:34.182Z,24.83
2023-02-24T17:29:08.254Z,18.17
2023-02-24T17:31:43.947Z,18.98
2023-02-24T17:34:14.577Z,18.55
2023-02-24T17:36:49.082Z,22.95
2023-02-24T17:39:22.864Z,24.75
2023-02-24T17:41:53.348Z,20.30
2023-02-24T17:44:34.104Z,20.33
2023-02-24T17:47:06.769Z,19.27
2023-02-24T17:49:38.738Z,20.63
2023-02-24T17:52:09.317Z,23.30
2023-02-24T17:54:41.214Z,19.77
2023-02-24T17:57:17.466Z,21.75
2023-02-24T17:59:48.940Z,17.92
2023-02-24T18:02:21.181Z,21.23
2023-02-24T18:05:13.235Z,15.40
2023-02-24T18:07:43.636Z,15.93
2023-02-24T18:10:15.513Z,16.30
2023-02-24T18:12:45.592Z,18.40
2023-02-24T18:15:15.922Z,17.13
2023-02-24T18:17:48.159Z,17.88
2023-02-24T18:20:19.068Z,14.27
2023-02-24T18:22:51.149Z,13.35
2023-02-24T18:25:23.405Z,14.20
2023-02-24T18:27:57.783Z,14.77
2023-02-24T18:30:29.244Z,13.60
2023-02-24T18:33:02.524Z,17.15
2023-02-24T18:35:34.381Z,18.17
2023-02-24T18:38:04.850Z,14.95
2023-02-24T18:40:36.443Z,16.08
2023-02-24T18:43:09.102Z,12.70
2023-02-24T18:45:45.647Z,13.27
2023-02-24T18:48:16.608Z,13.30
2023-02-24T18:50:59.932Z,15.80
2023-02-24T18:53:32.950Z,15.23
2023-02-24T18:56:05.978Z,12.57
2023-02-24T18:58:38.540Z,13.05
2023-02-24T19:01:22.571Z,15.82
2023-02-24T19:03:53.723Z,14.55
2023-02-24T19:06:25.700Z,15.20
2023-02-24T19:09:04.272Z,15.15
2023-02-24T19:11:37.806Z,13.82
2023-02-24T19:14:12.735Z,14.10
2023-02-24T19:16:43.647Z,14.65
2023-02-24T19:19:18.627Z,16.83
2023-02-24T19:21:49.925Z,13.45
2023-02-24T19:24:23.370Z,14.63
2023-02-24T19:26:56.617Z,16.73
2023-02-24T19:29:29.859Z,15.25
2023-02-24T19:32:01.782Z,13.43
2023-02-24T19:34:34.524Z,16.67
2023-02-24T19:37:04.953Z,16.20
2023-02-24T19:39:36.657Z,13.27
2023-02-24T19:42:08.498Z,13.95
2023-02-24T19:44:39.000Z,17.30
2023-02-24T19:47:09.204Z,16.95
2023-02-24T19:49:40.174Z,16.38
2023-02-24T19:52:14.864Z,16.52
2023-02-24T19:54:44.907Z,13.95
2023-02-24T19:57:54.725Z,17.85
2023-02-24T20:01:16.937Z,14.88
2023-02-24T20:04:27.472Z,15.82
2023-02-24T20:07:37.124Z,16.58
2023-02-24T20:10:47.017Z,14.75
2023-02-24T20:13:18.096Z,15.25
2023-02-24T20:15:48.618Z,17.10
2023-02-24T20:18:58.860Z,17.80
2023-02-24T20:21:29.815Z,15.07
2023-02-24T20:24:14.924Z,15.40
2023-02-24T20:26:52.934Z,17.45
2023-02-24T20:29:27.545Z,16.30
2023-02-24T20:31:58.198Z,16.98
2023-02-24T20:34:29.630Z,17.50
2023-02-24T20:37:01.258Z,20.65
2023-02-24T20:39:34.591Z,16.75
2023-02-24T20:42:15.290Z,15.40
2023-02-24T20:44:47.743Z,17.55
2023-02-24T20:47:19.370Z,15.52
2023-02-24T20:49:49.486Z,18.42
2023-02-24T20:52:19.568Z,19.40
2023-02-24T20:54:52.926Z,19.92
2023-02-24T20:57:22.901Z,21.45
2023-02-24T21:00:03.041Z,15.55
2023-02-24T21:02:35.031Z,16.65
2023-02-24T21:05:07.204Z,16.42
2023-02-24T21:07:42.518Z,16.45
2023-02-24T21:10:13.837Z,20.73
2023-02-24T21:12:44.381Z,17.52
2023-02-24T21:15:14.708Z,16.88
2023-02-24T21:17:45.105Z,17.73
2023-02-24T21:20:18.647Z,17.60
2023-02-24T21:22:48.728Z,17.90
2023-02-24T21:25:19.007Z,20.98
2023-02-24T21:27:49.896Z,18.08
2023-02-24T21:30:21.085Z,17.92
2023-02-24T21:32:51.143Z,20.30
2023-02-24T21:35:22.864Z,20.77
2023-02-24T21:37:53.286Z,18.08
2023-02-24T21:40:26.728Z,18.55
2023-02-24T21:42:58.403Z,19.60
2023-02-24T21:45:29.373Z,19.48
2023-02-24T21:47:59.906Z,20.92
2023-02-24T21:50:31.284Z,19.05
2023-02-24T21:53:02.576Z,19.40
2023-02-24T21:55:32.663Z,20.27
2023-02-24T21:58:02.740Z,19.30
2023-02-24T22:00:34.829Z,19.98
2023-02-24T22:03:05.528Z,19.80
2023-02-24T22:05:36.333Z,19.58
2023-02-24T22:08:13.092Z,24.58
2023-02-24T22:10:43.650Z,16.98
2023-02-24T22:13:13.956Z,20.92
2023-02-24T22:15:44.075Z,24.25
2023-02-24T22:18:15.193Z,22.10
2023-02-24T22:20:47.544Z,20.85
2023-02-24T22:23:27.316Z,20.08
2023-02-24T22:25:57.681Z,24.10
2023-02-24T22:28:31.231Z,19.10
2023-02-24T22:31:01.821Z,21.23
2023-02-24T22:33:36.053Z,21.05
2023-02-24T22:36:17.906Z,24.02
2023-02-24T22:38:51.023Z,20.27
2023-02-24T22:41:26.284Z,20.33
2023-02-24T22:43:58.671Z,23.15
2023-02-24T22:46:32.804Z,23.75
2023-02-24T22:49:06.357Z,22.00
2023-02-24T22:51:36.616Z,23.00
2023-02-24T22:54:07.474Z,24.98
2023-02-24T22:56:39.415Z,25.92
2023-02-24T22:59:12.228Z,26.05
2023-02-24T23:01:44.318Z,22.40
2023-02-24T23:04:19.899Z,23.70
2023-02-24T23:06:50.338Z,20.58
2023-02-24T23:09:21.458Z,23.65
2023-02-24T23:11:54.009Z,22.77
2023-02-24T23:14:24.244Z,29.70
2023-02-24T23:16:57.161Z,25.83
2023-02-24T23:19:29.806Z,24.20
2023-02-24T23:22:00.506Z,24.33
2023-02-24T23:24:31.069Z,24.65
2023-02-24T23:27:03.192Z,28.15
2023-02-24T23:29:33.394Z,25.48
2023-02-24T23:32:05.430Z,33.55
2023-02-24T23:34:36.100Z,43.22
2023-02-24T23:37:09.253Z,34.17
2023-02-24T23:39:39.712Z,29.42
2023-02-24T23:42:11.630Z,29.15
2023-02-24T23:44:43.253Z,25.98
2023-02-24T23:47:14.104Z,27.75
2023-02-24T23:49:48.470Z,26.48
2023-02-24T23:52:20.850Z,29.15
2023-02-24T23:54:57.124Z,26.60
2023-02-24T23:57:29.802Z,26.42
